createdAt,value
2023-05-05T00:01:24.793Z,3.20
2023-05-05T00:03:51.674Z,3.42
2023-05-05T00:06:18.447Z,3.42
2023-05-05T00:08:46.289Z,3.17
2023-05-05T00:11:13.019Z,3.00
2023-05-05T00:13:39.709Z,2.97
2023-05-05T00:16:06.593Z,2.83
2023-05-05T00:18:33.828Z,3.13
2023-05-05T00:21:00.846Z,3.25
2023-05-05T00:23:27.542Z,3.40
2023-05-05T00:25:54.184Z,3.13
2023-05-05T00:28:20.811Z,3.50
2023-05-05T00:30:47.538Z,3.13
2023-05-05T00:33:14.278Z,3.60
2023-05-05T00:35:41.071Z,3.30
2023-05-05T00:38:07.724Z,3.30
2023-05-05T00:40:34.440Z,3.47
2023-05-05T00:43:01.194Z,3.33
2023-05-05T00:45:28.035Z,3.45
2023-05-05T00:47:58.766Z,3.17
2023-05-05T00:50:27.613Z,3.40
2023-05-05T00:53:02.573Z,3.65
2023-05-05T00:55:33.563Z,3.47
2023-05-05T00:58:01.707Z,3.63
2023-05-05T01:00:29.014Z,3.20
2023-05-05T01:02:56.329Z,3.47
2023-05-05T01:05:25.751Z,3.38
2023-05-05T01:08:18.289Z,3.50
2023-05-05T01:10:54.799Z,3.28
2023-05-05T01:13:53.705Z,3.58
2023-05-05T01:16:25.796Z,3.50
2023-05-05T01:19:31.712Z,3.28
2023-05-05T01:22:01.366Z,3.22
2023-05-05T01:24:50.231Z,3.50
2023-05-05T01:27:22.885Z,3.50
2023-05-05T01:30:05.311Z,3.50
2023-05-05T01:32:37.548Z,3.58
2023-05-05T01:35:26.934Z,3.42
2023-05-05T01:38:07.785Z,3.40
2023-05-05T01:40:43.528Z,3.30
2023-05-05T01:43:12.290Z,4.15
2023-05-05T01:45:42.243Z,3.42
2023-05-05T01:48:11.589Z,3.70
2023-05-05T01:50:41.682Z,3.70
2023-05-05T01:53:09.828Z,4.15
2023-05-05T01:55:39.040Z,3.63
2023-05-05T01:58:07.561Z,3.47
2023-05-05T02:00:34.837Z,3.58
2023-05-05T02:03:04.688Z,4.10
2023-05-05T02:05:33.450Z,3.67
2023-05-05T02:08:01.325Z,3.55
2023-05-05T02:10:30.067Z,3.58
2023-05-05T02:12:59.005Z,3.70
2023-05-05T02:15:27.732Z,3.47
2023-05-05T02:17:55.614Z,3.75
2023-05-05T02:20:24.109Z,3.70
2023-05-05T02:22:50.868Z,3.40
2023-05-05T02:25:18.048Z,3.80
2023-05-05T02:27:48.151Z,3.72
2023-05-05T02:30:18.014Z,3.83
2023-05-05T02:32:55.157Z,3.83
2023-05-05T02:35:33.024Z,3.75
2023-05-05T02:38:05.426Z,3.80
2023-05-05T02:40:38.532Z,3.63
2023-05-05T02:43:09.606Z,3.88
2023-05-05T02:45:36.637Z,4.43
2023-05-05T02:48:04.232Z,4.00
2023-05-05T02:50:34.044Z,3.45
2023-05-05T02:53:11.592Z,3.83
2023-05-05T02:55:50.560Z,3.50
2023-05-05T02:58:31.579Z,3.53
2023-05-05T03:01:22.962Z,3.40
2023-05-05T03:04:08.676Z,3.35
2023-05-05T03:06:42.472Z,3.45
2023-05-05T03:09:15.795Z,4.15
2023-05-05T03:11:55.132Z,3.70
2023-05-05T03:14:22.526Z,3.65
2023-05-05T03:16:50.890Z,3.30
2023-05-05T03:19:20.270Z,3.50
2023-05-05T03:21:52.355Z,3.80
2023-05-05T03:24:20.506Z,3.38
2023-05-05T03:26:55.492Z,3.95
2023-05-05T03:29:25.793Z,3.40
2023-05-05T03:31:53.400Z,3.92
2023-05-05T03:34:20.740Z,3.80
2023-05-05T03:36:48.541Z,3.90
2023-05-05T03:39:16.464Z,4.43
2023-05-05T03:41:43.255Z,4.03
2023-05-05T03:44:11.266Z,3.92
2023-05-05T03:46:38.038Z,4.13
2023-05-05T03:49:09.670Z,3.95
2023-05-05T03:51:37.676Z,4.40
2023-05-05T03:54:04.389Z,4.80
2023-05-05T03:56:31.108Z,4.40
2023-05-05T03:58:57.790Z,4.68
2023-05-05T04:01:24.899Z,4.57
2023-05-05T04:03:52.423Z,4.10
2023-05-05T04:06:20.053Z,4.63
2023-05-05T04:08:46.856Z,3.70
2023-05-05T04:11:13.719Z,4.00
2023-05-05T04:13:41.318Z,4.10
2023-05-05T04:16:08.965Z,4.35
2023-05-05T04:18:37.426Z,4.30
2023-05-05T04:21:04.696Z,4.65
2023-05-05T04:23:31.613Z,4.38
2023-05-05T04:25:59.126Z,4.43
2023-05-05T04:28:26.889Z,4.60
2023-05-05T04:30:53.745Z,4.30
2023-05-05T04:33:20.616Z,4.90
2023-05-05T04:35:49.104Z,4.60
2023-05-05T04:38:16.137Z,4.47
2023-05-05T04:40:43.465Z,4.93
2023-05-05T04:43:11.093Z,5.10
2023-05-05T04:45:38.171Z,4.07
2023-05-05T04:48:05.731Z,4.85
2023-05-05T04:50:32.659Z,4.95
2023-05-05T04:52:59.468Z,5.22
2023-05-05T04:55:28.257Z,4.78
2023-05-05T04:57:55.264Z,4.50
2023-05-05T05:00:23.942Z,4.38
2023-05-05T05:02:50.633Z,4.57
2023-05-05T05:05:17.312Z,4.57
2023-05-05T05:07:44.246Z,5.03
2023-05-05T05:10:11.332Z,4.50
2023-05-05T05:12:38.170Z,4.93
2023-05-05T05:15:05.441Z,5.43
2023-05-05T05:17:32.652Z,4.57
2023-05-05T05:20:04.547Z,5.57
2023-05-05T05:22:32.420Z,5.07
2023-05-05T05:24:59.096Z,5.22
2023-05-05T05:27:25.973Z,5.30
2023-05-05T05:29:54.370Z,6.30
2023-05-05T05:32:21.434Z,5.82
2023-05-05T05:34:48.754Z,5.72
2023-05-05T05:37:16.349Z,6.55
2023-05-05T05:39:43.794Z,5.68
2023-05-05T05:42:11.238Z,5.75
2023-05-05T05:44:37.905Z,7.38
2023-05-05T05:47:04.831Z,6.50
2023-05-05T05:49:31.501Z,6.30
2023-05-05T05:51:58.301Z,6.95
2023-05-05T05:54:25.005Z,6.60
2023-05-05T05:56:51.774Z,7.45
2023-05-05T05:59:18.458Z,6.68
2023-05-05T06:01:45.812Z,7.28
2023-05-05T06:04:13.237Z,7.20
2023-05-05T06:06:40.375Z,7.25
2023-05-05T06:09:07.399Z,7.05
2023-05-05T06:11:35.042Z,6.55
2023-05-05T06:14:01.763Z,6.95
2023-05-05T06:16:28.949Z,7.28
2023-05-05T06:18:57.138Z,7.38
2023-05-05T06:21:24.552Z,7.57
2023-05-05T06:23:51.679Z,7.63
2023-05-05T06:26:18.967Z,7.30
2023-05-05T06:28:45.776Z,7.43
2023-05-05T06:31:14.116Z,6.60
2023-05-05T06:33:40.901Z,6.65
2023-05-05T06:36:07.709Z,7.05
2023-05-05T06:38:34.386Z,5.90
2023-05-05T06:41:01.049Z,6.70
2023-05-05T06:43:29.196Z,6.60
2023-05-05T06:45:59.452Z,7.72
2023-05-05T06:48:26.052Z,7.20
2023-05-05T06:50:52.792Z,6.35
2023-05-05T06:53:19.447Z,7.00
2023-05-05T06:55:47.446Z,5.38
2023-05-05T06:58:14.410Z,6.20
2023-05-05T07:00:41.236Z,5.30
2023-05-05T07:03:08.254Z,5.38
2023-05-05T07:05:35.048Z,5.13
2023-05-05T07:08:01.816Z,5.43
2023-05-05T07:10:28.587Z,5.03
2023-05-05T07:12:55.506Z,5.20
2023-05-05T07:15:28.856Z,4.75
2023-05-05T07:17:56.479Z,4.55
2023-05-05T07:20:23.412Z,4.50
2023-05-05T07:22:50.318Z,4.03
2023-05-05T07:25:16.971Z,4.70
2023-05-05T07:27:43.773Z,4.05
2023-05-05T07:30:14.054Z,4.00
2023-05-05T07:32:43.128Z,3.58
2023-05-05T07:35:10.070Z,3.65
2023-05-05T07:37:36.721Z,3.65
2023-05-05T07:40:03.648Z,3.53
2023-05-05T07:42:30.356Z,3.90
2023-05-05T07:44:57.006Z,3.40
2023-05-05T07:47:23.934Z,3.83
2023-05-05T07:49:50.964Z,3.67
2023-05-05T07:52:17.626Z,3.47
2023-05-05T07:54:45.234Z,3.42
2023-05-05T07:57:11.929Z,3.60
2023-05-05T07:59:41.080Z,3.45
2023-05-05T08:02:07.797Z,2.88
2023-05-05T08:04:34.665Z,2.33
2023-05-05T08:07:01.406Z,2.47
2023-05-05T08:09:28.222Z,2.20
2023-05-05T08:11:54.872Z,2.35
2023-05-05T08:14:21.593Z,3.00
2023-05-05T08:16:48.274Z,2.65
2023-05-05T08:19:27.551Z,2.78
2023-05-05T08:21:56.149Z,2.40
2023-05-05T08:24:22.921Z,2.70
2023-05-05T08:26:49.630Z,2.70
2023-05-05T08:29:16.242Z,2.95
2023-05-05T08:31:42.975Z,3.17
2023-05-05T08:34:09.724Z,2.53
2023-05-05T08:36:36.549Z,2.90
2023-05-05T08:39:03.367Z,3.13
2023-05-05T08:41:30.512Z,2.78
2023-05-05T08:43:57.252Z,3.00
2023-05-05T08:46:25.043Z,2.83
2023-05-05T08:48:55.430Z,3.50
2023-05-05T08:51:25.714Z,3.80
2023-05-05T08:53:55.817Z,2.92
2023-05-05T08:56:25.762Z,2.72
2023-05-05T08:58:52.717Z,2.80
2023-05-05T09:01:19.814Z,2.92
2023-05-05T09:03:46.785Z,3.20
2023-05-05T09:06:13.597Z,3.05
2023-05-05T09:08:40.817Z,2.70
2023-05-05T09:11:07.494Z,2.90
2023-05-05T09:13:34.162Z,2.55
2023-05-05T09:16:01.006Z,3.03
2023-05-05T09:18:29.413Z,3.30
2023-05-05T09:20:58.736Z,2.70
2023-05-05T09:23:26.117Z,2.80
2023-05-05T09:26:08.341Z,2.70
2023-05-05T09:28:35.093Z,2.92
2023-05-05T09:31:16.100Z,3.33
2023-05-05T09:33:43.635Z,3.15
2023-05-05T09:36:11.542Z,3.35
2023-05-05T09:38:38.380Z,3.90
2023-05-05T09:41:06.470Z,3.08
2023-05-05T09:43:51.510Z,3.55
2023-05-05T09:46:18.283Z,3.40
2023-05-05T09:48:44.985Z,3.08
2023-05-05T09:51:11.754Z,3.33
2023-05-05T09:53:40.796Z,3.50
2023-05-05T09:56:08.115Z,3.38
2023-05-05T09:58:34.794Z,3.67
2023-05-05T10:01:01.483Z,3.45
2023-05-05T10:03:28.230Z,3.30
2023-05-05T10:05:56.772Z,3.58
2023-05-05T10:08:26.493Z,3.00
2023-05-05T10:10:57.198Z,3.35
2023-05-05T10:13:24.743Z,3.03
2023-05-05T10:15:54.102Z,3.30
2023-05-05T10:18:28.585Z,3.30
2023-05-05T10:20:58.527Z,3.70
2023-05-05T10:23:49.491Z,3.58
2023-05-05T10:26:19.194Z,3.55
2023-05-05T10:28:51.469Z,2.88
2023-05-05T10:31:25.678Z,3.30
2023-05-05T10:34:03.282Z,2.70
2023-05-05T10:36:31.750Z,3.20
2023-05-05T10:38:59.853Z,3.65
2023-05-05T10:41:27.150Z,3.10
2023-05-05T10:44:00.422Z,3.42
2023-05-05T10:46:29.391Z,3.28
2023-05-05T10:49:07.277Z,3.55
2023-05-05T10:52:09.409Z,3.40
2023-05-05T10:55:13.159Z,3.35
2023-05-05T10:57:42.560Z,3.15
2023-05-05T11:00:10.263Z,3.05
2023-05-05T11:02:37.547Z,3.55
2023-05-05T11:05:16.730Z,3.28
2023-05-05T11:07:45.142Z,3.22
2023-05-05T11:10:13.866Z,3.53
2023-05-05T11:12:57.675Z,3.92
2023-05-05T11:15:27.166Z,4.28
2023-05-05T11:17:54.969Z,3.97
2023-05-05T11:20:36.913Z,3.78
2023-05-05T11:23:03.591Z,4.07
2023-05-05T11:25:37.096Z,3.70
2023-05-05T11:28:14.646Z,4.32
2023-05-05T11:30:56.938Z,4.70
2023-05-05T11:33:31.377Z,4.45
2023-05-05T11:36:08.633Z,4.47
2023-05-05T11:39:02.903Z,3.83
2023-05-05T11:41:32.634Z,2.72
2023-05-05T11:44:16.447Z,2.80
2023-05-05T11:46:52.204Z,2.67
2023-05-05T11:49:28.254Z,2.58
2023-05-05T11:52:03.126Z,3.25
2023-05-05T11:54:30.391Z,3.05
2023-05-05T11:56:59.144Z,3.15
2023-05-05T11:59:26.006Z,3.20
2023-05-05T12:01:53.084Z,3.20
2023-05-05T12:04:20.535Z,3.53
2023-05-05T12:06:48.841Z,3.00
2023-05-05T12:09:20.686Z,3.53
2023-05-05T12:11:51.463Z,2.90
2023-05-05T12:14:18.442Z,2.83
2023-05-05T12:16:55.589Z,3.03
2023-05-05T12:19:22.315Z,2.35
2023-05-05T12:21:49.182Z,2.92
2023-05-05T12:24:16.063Z,2.75
2023-05-05T12:26:42.814Z,2.72
2023-05-05T12:29:09.565Z,3.15
2023-05-05T12:31:41.285Z,2.83
2023-05-05T12:34:11.808Z,2.85
2023-05-05T12:36:39.356Z,2.70
2023-05-05T12:39:06.197Z,2.35
2023-05-05T12:41:33.440Z,3.17
2023-05-05T12:44:01.574Z,2.63
2023-05-05T12:46:31.929Z,2.80
2023-05-05T12:49:05.204Z,2.92
2023-05-05T12:51:37.393Z,2.78
2023-05-05T12:54:05.053Z,2.88
2023-05-05T12:56:45.699Z,2.80
2023-05-05T12:59:21.319Z,1.90
2023-05-05T13:02:02.248Z,1.80
2023-05-05T13:04:29.171Z,1.42
2023-05-05T13:07:11.537Z,1.25
2023-05-05T13:09:38.344Z,1.38
2023-05-05T13:12:05.332Z,1.42
2023-05-05T13:14:32.377Z,1.85
2023-05-05T13:16:59.062Z,2.00
2023-05-05T13:19:26.557Z,1.67
2023-05-05T13:21:54.709Z,1.70
2023-05-05T13:24:31.173Z,1.67
2023-05-05T13:27:05.532Z,1.90
2023-05-05T13:29:33.140Z,1.65
2023-05-05T13:32:00.220Z,1.50
2023-05-05T13:34:27.004Z,1.35
2023-05-05T13:36:53.763Z,1.63
2023-05-05T13:39:20.604Z,1.63
2023-05-05T13:41:47.393Z,1.58
2023-05-05T13:44:14.371Z,1.58
2023-05-05T13:46:44.222Z,1.75
2023-05-05T13:49:11.253Z,1.70
2023-05-05T13:51:39.066Z,2.10
2023-05-05T13:54:06.852Z,2.00
2023-05-05T13:56:34.372Z,1.48
2023-05-05T13:59:02.330Z,0.82
2023-05-05T14:01:30.123Z,1.00
2023-05-05T14:03:57.606Z,0.75
2023-05-05T14:06:25.019Z,1.15
2023-05-05T14:08:51.937Z,0.88
2023-05-05T14:11:20.919Z,0.68
2023-05-05T14:13:47.976Z,0.65
2023-05-05T14:16:14.759Z,0.65
2023-05-05T14:18:41.622Z,0.80
2023-05-05T14:21:08.565Z,0.45
2023-05-05T14:23:35.317Z,0.70
2023-05-05T14:26:02.057Z,0.60
2023-05-05T14:28:28.876Z,0.70
2023-05-05T14:30:56.009Z,0.70
2023-05-05T14:33:22.687Z,0.57
2023-05-05T14:35:49.533Z,0.52
2023-05-05T14:38:16.375Z,0.57
2023-05-05T14:40:43.204Z,0.88
2023-05-05T14:43:09.909Z,0.52
2023-05-05T14:45:36.786Z,0.45
2023-05-05T14:48:03.746Z,0.60
2023-05-05T14:50:30.415Z,0.82
2023-05-05T14:52:57.128Z,0.68
2023-05-05T14:55:24.964Z,0.70
2023-05-05T14:57:51.956Z,0.50
2023-05-05T15:00:18.937Z,0.70
2023-05-05T15:02:47.889Z,0.60
2023-05-05T15:05:14.788Z,0.77
2023-05-05T15:07:41.552Z,0.68
2023-05-05T15:10:08.631Z,0.70
2023-05-05T15:12:35.431Z,0.63
2023-05-05T15:15:02.172Z,0.98
2023-05-05T15:17:30.634Z,1.08
2023-05-05T15:19:57.439Z,1.88
2023-05-05T15:22:24.266Z,3.42
2023-05-05T15:24:50.996Z,2.13
2023-05-05T15:27:18.217Z,1.23
2023-05-05T15:29:45.130Z,1.23
2023-05-05T15:32:12.016Z,1.40
2023-05-05T15:34:38.644Z,1.17
2023-05-05T15:37:05.703Z,1.83
2023-05-05T15:39:32.409Z,1.38
2023-05-05T15:42:03.575Z,1.20
2023-05-05T15:44:31.214Z,1.25
2023-05-05T15:46:57.921Z,1.60
2023-05-05T15:49:24.734Z,1.80
2023-05-05T15:51:51.405Z,1.65
2023-05-05T15:54:18.072Z,1.38
2023-05-05T15:56:44.763Z,1.63
2023-05-05T15:59:11.638Z,0.93
2023-05-05T16:01:38.595Z,1.27
2023-05-05T16:04:05.486Z,1.10
2023-05-05T16:06:32.186Z,0.70
2023-05-05T16:08:58.912Z,0.90
2023-05-05T16:11:26.661Z,0.70
2023-05-05T16:13:53.531Z,1.10
2023-05-05T16:16:20.750Z,0.95
2023-05-05T16:18:47.802Z,1.20
2023-05-05T16:21:14.580Z,1.10
2023-05-05T16:23:41.307Z,0.82
2023-05-05T16:26:08.045Z,0.95
2023-05-05T16:28:34.876Z,1.08
2023-05-05T16:31:02.192Z,0.90
2023-05-05T16:33:29.547Z,0.77
2023-05-05T16:35:56.660Z,0.68
2023-05-05T16:38:23.500Z,1.00
2023-05-05T16:40:50.418Z,0.90
2023-05-05T16:43:17.130Z,0.90
2023-05-05T16:45:43.751Z,1.02
2023-05-05T16:48:10.747Z,0.88
2023-05-05T16:50:37.448Z,1.10
2023-05-05T16:53:04.120Z,1.00
2023-05-05T16:55:31.356Z,1.00
2023-05-05T16:57:57.953Z,0.98
2023-05-05T17:00:24.650Z,0.80
2023-05-05T17:02:51.266Z,0.70
2023-05-05T17:05:17.979Z,0.88
2023-05-05T17:07:44.852Z,0.90
2023-05-05T17:10:11.610Z,0.65
2023-05-05T17:12:38.316Z,0.93
2023-05-05T17:15:05.805Z,0.80
2023-05-05T17:17:32.571Z,0.90
2023-05-05T17:19:59.569Z,1.05
2023-05-05T17:22:26.431Z,0.93
2023-05-05T17:24:53.108Z,1.02
2023-05-05T17:27:19.751Z,1.20
2023-05-05T17:29:46.497Z,0.70
2023-05-05T17:32:13.205Z,0.80
2023-05-05T17:34:41.092Z,0.88
2023-05-05T17:37:09.066Z,0.80
2023-05-05T17:39:35.709Z,1.00
2023-05-05T17:42:02.438Z,0.93
2023-05-05T17:44:29.171Z,0.98
2023-05-05T17:46:55.866Z,0.90
2023-05-05T17:49:25.149Z,1.10
2023-05-05T17:51:51.914Z,1.17
2023-05-05T17:54:18.800Z,0.75
2023-05-05T17:56:45.679Z,1.10
2023-05-05T17:59:12.516Z,0.90
2023-05-05T18:01:39.223Z,2.53
2023-05-05T18:04:05.978Z,2.15
2023-05-05T18:06:32.742Z,2.10
2023-05-05T18:08:59.382Z,1.52
2023-05-05T18:11:30.868Z,1.42
2023-05-05T18:13:57.734Z,0.82
2023-05-05T18:16:24.403Z,1.00
2023-05-05T18:18:51.132Z,1.33
2023-05-05T18:21:17.789Z,1.20
2023-05-05T18:23:44.461Z,1.20
2023-05-05T18:26:11.219Z,1.30
2023-05-05T18:28:37.931Z,0.80
2023-05-05T18:31:04.758Z,0.90
2023-05-05T18:33:31.496Z,1.17
2023-05-05T18:35:58.149Z,0.90
2023-05-05T18:38:24.912Z,0.80
2023-05-05T18:40:51.581Z,1.00
2023-05-05T18:43:18.271Z,1.00
2023-05-05T18:45:45.207Z,1.20
2023-05-05T18:48:12.126Z,1.10
2023-05-05T18:50:38.795Z,1.08
2023-05-05T18:53:05.504Z,1.20
2023-05-05T18:55:32.178Z,1.10
2023-05-05T18:57:58.820Z,1.00
2023-05-05T19:00:25.523Z,1.10
2023-05-05T19:02:52.283Z,1.00
2023-05-05T19:05:19.028Z,1.00
2023-05-05T19:07:45.921Z,1.20
2023-05-05T19:10:12.836Z,1.20
2023-05-05T19:12:39.544Z,1.50
2023-05-05T19:15:07.120Z,1.58
2023-05-05T19:17:34.162Z,1.33
2023-05-05T19:20:00.826Z,1.23
2023-05-05T19:22:27.472Z,1.15
2023-05-05T19:24:54.139Z,1.38
2023-05-05T19:27:21.472Z,1.10
2023-05-05T19:29:52.383Z,1.10
2023-05-05T19:32:20.793Z,1.00
2023-05-05T19:34:47.963Z,1.30
2023-05-05T19:37:14.837Z,1.40
2023-05-05T19:39:44.134Z,1.92
2023-05-05T19:42:10.881Z,1.33
2023-05-05T19:44:37.537Z,1.67
2023-05-05T19:47:04.816Z,1.63
2023-05-05T19:49:31.822Z,1.90
2023-05-05T19:51:58.845Z,1.90
2023-05-05T19:54:26.207Z,1.95
2023-05-05T19:56:54.554Z,1.92
2023-05-05T19:59:22.027Z,1.90
2023-05-05T20:01:48.881Z,1.70
2023-05-05T20:04:15.651Z,1.63
2023-05-05T20:06:42.347Z,1.92
2023-05-05T20:09:09.076Z,1.80
2023-05-05T20:11:35.881Z,1.73
2023-05-05T20:14:02.604Z,1.92
2023-05-05T20:16:29.518Z,1.80
2023-05-05T20:18:56.276Z,1.70
2023-05-05T20:21:22.960Z,1.80
2023-05-05T20:23:49.784Z,1.75
2023-05-05T20:26:16.861Z,2.10
2023-05-05T20:28:45.342Z,1.98
2023-05-05T20:31:14.081Z,2.22
2023-05-05T20:33:40.895Z,2.60
2023-05-05T20:36:07.733Z,2.40
2023-05-05T20:38:34.536Z,2.10
2023-05-05T20:41:01.277Z,2.17
2023-05-05T20:43:28.021Z,2.10
2023-05-05T20:45:54.875Z,2.03
2023-05-05T20:48:21.629Z,1.75
2023-05-05T20:50:48.323Z,2.28
2023-05-05T20:53:18.801Z,1.70
2023-05-05T20:55:45.788Z,2.15
2023-05-05T20:58:12.731Z,2.20
2023-05-05T21:00:39.551Z,2.20
2023-05-05T21:03:06.369Z,2.30
2023-05-05T21:05:33.108Z,2.50
2023-05-05T21:08:01.064Z,2.45
2023-05-05T21:10:28.808Z,1.75
2023-05-05T21:12:55.605Z,1.98
2023-05-05T21:15:22.328Z,2.20
2023-05-05T21:17:49.024Z,2.47
2023-05-05T21:20:16.395Z,2.33
2023-05-05T21:22:43.108Z,1.95
2023-05-05T21:25:21.036Z,2.10
2023-05-05T21:27:48.527Z,2.15
2023-05-05T21:30:15.812Z,2.15
2023-05-05T21:32:42.902Z,2.20
2023-05-05T21:35:10.306Z,2.50
2023-05-05T21:37:38.746Z,2.35
2023-05-05T21:40:09.279Z,2.35
2023-05-05T21:42:36.188Z,2.00
2023-05-05T21:45:02.941Z,1.90
2023-05-05T21:47:29.626Z,1.85
2023-05-05T21:49:57.612Z,2.13
2023-05-05T21:52:24.299Z,1.80
2023-05-05T21:54:50.962Z,1.85
2023-05-05T21:57:17.683Z,1.85
2023-05-05T21:59:44.340Z,2.13
2023-05-05T22:02:11.066Z,2.00
2023-05-05T22:04:37.750Z,2.20
2023-05-05T22:07:04.439Z,1.88
2023-05-05T22:09:31.191Z,1.98
2023-05-05T22:11:57.880Z,2.10
2023-05-05T22:14:25.050Z,2.00
2023-05-05T22:16:51.737Z,2.13
2023-05-05T22:19:18.363Z,1.80
2023-05-05T22:21:44.992Z,1.73
2023-05-05T22:24:11.761Z,2.08
2023-05-05T22:26:42.872Z,1.83
2023-05-05T22:29:10.555Z,1.80
2023-05-05T22:31:37.628Z,2.05
2023-05-05T22:34:04.526Z,2.33
2023-05-05T22:36:31.515Z,2.00
2023-05-05T22:38:58.160Z,2.40
2023-05-05T22:41:25.041Z,2.17
2023-05-05T22:43:51.785Z,2.40
2023-05-05T22:46:18.429Z,2.25
2023-05-05T22:48:45.270Z,2.45
2023-05-05T22:51:12.359Z,2.17
2023-05-05T22:53:39.203Z,2.85
2023-05-05T22:56:06.292Z,2.45
2023-05-05T22:58:33.016Z,2.15
2023-05-05T23:00:59.708Z,2.22
2023-05-05T23:03:26.663Z,2.53
2023-05-05T23:05:53.326Z,2.10
2023-05-05T23:08:20.487Z,2.42
2023-05-05T23:10:47.438Z,2.58
2023-05-05T23:13:14.124Z,2.42
2023-05-05T23:15:41.184Z,2.50
2023-05-05T23:18:08.075Z,2.30
2023-05-05T23:20:34.926Z,2.30
2023-05-05T23:23:01.540Z,3.05
2023-05-05T23:25:28.172Z,2.53
2023-05-05T23:27:54.903Z,2.38
2023-05-05T23:30:21.699Z,2.67
2023-05-05T23:32:48.334Z,2.70
2023-05-05T23:35:15.208Z,2.55
2023-05-05T23:37:41.886Z,2.60
2023-05-05T23:40:08.994Z,2.40
2023-05-05T23:42:35.646Z,3.15
2023-05-05T23:45:02.331Z,2.45
2023-05-05T23:47:29.033Z,2.78
2023-05-05T23:49:55.719Z,2.58
2023-05-05T23:52:22.579Z,2.90
2023-05-05T23:54:49.410Z,2.90
2023-05-05T23:57:16.098Z,3.03
2023-05-05T23:59:42.777Z,2.80
